地図

経路データ

SID SEASON NUMBER BASIN SUBBASIN NAME ISO_TIME NATURE LAT LON WMO_WIND WMO_PRES WMO_AGENCY TRACK_TYPE DIST2LAND LANDFALL IFLAG USA_AGENCY USA_ATCF_ID USA_LAT USA_LON USA_RECORD USA_STATUS USA_WIND USA_PRES USA_SSHS USA_R34_NE USA_R34_SE USA_R34_SW USA_R34_NW USA_R50_NE USA_R50_SE USA_R50_SW USA_R50_NW USA_R64_NE USA_R64_SE USA_R64_SW USA_R64_NW USA_POCI USA_ROCI USA_RMW USA_EYE TOKYO_LAT TOKYO_LON TOKYO_GRADE TOKYO_WIND TOKYO_PRES TOKYO_R50_DIR TOKYO_R50_LONG TOKYO_R50_SHORT TOKYO_R30_DIR TOKYO_R30_LONG TOKYO_R30_SHORT TOKYO_LAND CMA_LAT CMA_LON CMA_CAT CMA_WIND CMA_PRES HKO_LAT HKO_LON HKO_CAT HKO_WIND HKO_PRES NEWDELHI_LAT NEWDELHI_LON NEWDELHI_GRADE NEWDELHI_WIND NEWDELHI_PRES NEWDELHI_CI NEWDELHI_DP NEWDELHI_POCI REUNION_LAT REUNION_LON REUNION_TYPE REUNION_WIND REUNION_PRES REUNION_TNUM REUNION_CI REUNION_RMW REUNION_R34_NE REUNION_R34_SE REUNION_R34_SW REUNION_R34_NW REUNION_R50_NE REUNION_R50_SE REUNION_R50_SW REUNION_R50_NW REUNION_R64_NE REUNION_R64_SE REUNION_R64_SW REUNION_R64_NW BOM_LAT BOM_LON BOM_TYPE BOM_WIND BOM_PRES BOM_TNUM BOM_CI BOM_RMW BOM_R34_NE BOM_R34_SE BOM_R34_SW BOM_R34_NW BOM_R50_NE BOM_R50_SE BOM_R50_SW BOM_R50_NW BOM_R64_NE BOM_R64_SE BOM_R64_SW BOM_R64_NW BOM_ROCI BOM_POCI BOM_EYE BOM_POS_METHOD BOM_PRES_METHOD NADI_LAT NADI_LON NADI_CAT NADI_WIND NADI_PRES WELLINGTON_LAT WELLINGTON_LON WELLINGTON_WIND WELLINGTON_PRES DS824_LAT DS824_LON DS824_STAGE DS824_WIND DS824_PRES TD9636_LAT TD9636_LON TD9636_STAGE TD9636_WIND TD9636_PRES TD9635_LAT TD9635_LON TD9635_WIND TD9635_PRES TD9635_ROCI NEUMANN_LAT NEUMANN_LON NEUMANN_CLASS NEUMANN_WIND NEUMANN_PRES MLC_LAT MLC_LON MLC_CLASS MLC_WIND MLC_PRES USA_GUST BOM_GUST BOM_GUST_PER REUNION_GUST REUNION_GUST_PER USA_SEAHGT USA_SEARAD_NE USA_SEARAD_SE USA_SEARAD_SW USA_SEARAD_NW STORM_SPEED STORM_DIR
1925300N11144 1925 55 WP MM NOT_NAMED 1925-10-26 22:00:00 NR 11.1000 144.300 main 1500 1500 __________O___ -1 11.1000 144.300 4 10 274
1925300N11144 1925 55 WP MM NOT_NAMED 1925-10-27 00:00:00 NR 11.1248 143.958 main 1506 1508 __________P___ -1 11.1248 143.958 4 10 274
1925300N11144 1925 55 WP MM NOT_NAMED 1925-10-27 03:00:00 NR 11.1587 143.449 main 1531 1525 __________P___ -1 11.1587 143.449 4 10 273
1925300N11144 1925 55 WP MM NOT_NAMED 1925-10-27 06:00:00 NR 11.1846 142.947 main 1525 1511 __________P___ -1 11.1846 142.947 4 10 272
1925300N11144 1925 55 WP MM NOT_NAMED 1925-10-27 09:00:00 NR 11.1987 142.459 main 1511 1504 __________P___ -1 11.1987 142.459 4 10 271
1925300N11144 1925 55 WP MM NOT_NAMED 1925-10-27 10:00:00 NR 11.2000 142.300 main 1504 1494 __________O___ -1 11.2000 142.300 4 9 270
1925300N11144 1925 55 WP MM NOT_NAMED 1925-10-27 12:00:00 NR 11.1975 141.988 main 1494 1479 __________P___ -1 11.1975 141.988 4 9 269
1925300N11144 1925 55 WP MM NOT_NAMED 1925-10-27 15:00:00 NR 11.1875 141.526 main 1479 1462 __________P___ -1 11.1875 141.526 4 9 269
1925300N11144 1925 55 WP MM NOT_NAMED 1925-10-27 18:00:00 NR 11.1811 141.059 main 1462 1441 __________P___ -1 11.1811 141.059 4 9 270
1925300N11144 1925 55 WP MM NOT_NAMED 1925-10-27 21:00:00 NR 11.1910 140.570 main 1441 1433 __________P___ -1 11.1910 140.570 4 10 272
1925300N11144 1925 55 WP MM NOT_NAMED 1925-10-27 22:00:00 NR 11.2000 140.400 main 1433 1418 __________O___ -1 11.2000 140.400 4 11 274
1925300N11144 1925 55 WP MM NOT_NAMED 1925-10-28 00:00:00 NR 11.2302 140.037 main 1418 1412 __________P___ -1 11.2302 140.037 4 11 276
1925300N11144 1925 55 WP MM NOT_NAMED 1925-10-28 03:00:00 NR 11.2945 139.467 main 1412 1399 __________P___ -1 11.2945 139.467 4 11 277
1925300N11144 1925 55 WP MM NOT_NAMED 1925-10-28 06:00:00 NR 11.3758 138.881 main 1404 1348 __________P___ -1 11.3758 138.881 4 12 279
1925300N11144 1925 55 WP MM NOT_NAMED 1925-10-28 09:00:00 NR 11.4679 138.293 main 1348 1327 __________P___ -1 11.4679 138.293 4 12 279
1925300N11144 1925 55 WP MM NOT_NAMED 1925-10-28 10:00:00 NR 11.5000 138.100 main 1327 1284 __________O___ -1 11.5000 138.100 4 11 278
1925300N11144 1925 55 WP MM NOT_NAMED 1925-10-28 12:00:00 NR 11.5421 137.740 main 1284 1233 __________P___ -1 11.5421 137.740 4 11 277
1925300N11144 1925 55 WP MM NOT_NAMED 1925-10-28 15:00:00 NR 11.6115 137.208 main 1233 1182 __________P___ -1 11.6115 137.208 4 11 279
1925300N11144 1925 55 WP MM NOT_NAMED 1925-10-28 18:00:00 NR 11.7051 136.666 main 1182 1121 __________P___ -1 11.7051 136.666 4 11 282
1925300N11144 1925 55 WP MM NOT_NAMED 1925-10-28 21:00:00 NR 11.8417 136.099 main 1121 1103 __________P___ -1 11.8417 136.099 4 12 285
1925300N11144 1925 55 WP MM NOT_NAMED 1925-10-28 22:00:00 NR 11.9000 135.900 main 1103 1063 __________O___ -1 11.9000 135.900 4 13 288
1925300N11144 1925 55 WP MM NOT_NAMED 1925-10-29 00:00:00 NR 12.0409 135.466 main 1063 991 __________P___ -1 12.0409 135.466 4 14 290
1925300N11144 1925 55 WP MM NOT_NAMED 1925-10-29 03:00:00 NR 12.2963 134.782 main 991 921 __________P___ -1 12.2963 134.782 4 15 292
1925300N11144 1925 55 WP MM NOT_NAMED 1925-10-29 06:00:00 NR 12.5877 134.088 main 921 854 __________P___ -1 12.5877 134.088 4 15 294
1925300N11144 1925 55 WP MM NOT_NAMED 1925-10-29 09:00:00 NR 12.8964 133.414 main 854 835 __________P___ -1 12.8964 133.414 4 14 295
1925300N11144 1925 55 WP MM NOT_NAMED 1925-10-29 10:00:00 NR 13.0000 133.200 main 835 800 __________O___ -1 13.0000 133.200 4 14 296
1925300N11144 1925 55 WP MM NOT_NAMED 1925-10-29 12:00:00 NR 13.1966 132.789 main 800 741 __________P___ -1 13.1966 132.789 4 13 297
1925300N11144 1925 55 WP MM NOT_NAMED 1925-10-29 15:00:00 NR 13.4981 132.204 main 741 695 __________P___ -1 13.4981 132.204 4 13 299
1925300N11144 1925 55 WP MM NOT_NAMED 1925-10-29 18:00:00 NR 13.8021 131.659 main 695 653 __________P___ -1 13.8021 131.659 4 12 301
1925300N11144 1925 55 WP MM NOT_NAMED 1925-10-29 21:00:00 NR 14.1020 131.157 main 653 636 __________P___ -1 14.1020 131.157 4 11 302
1925300N11144 1925 55 WP MM NOT_NAMED 1925-10-29 22:00:00 NR 14.2000 131.000 main 636 610 __________O___ -1 14.2000 131.000 4 11 301
1925300N11144 1925 55 WP MM NOT_NAMED 1925-10-30 00:00:00 NR 14.3730 130.688 main 614 584 __________P___ -1 14.3730 130.688 4 10 301
1925300N11144 1925 55 WP MM NOT_NAMED 1925-10-30 03:00:00 NR 14.6261 130.258 main 584 557 __________P___ -1 14.6261 130.258 4 10 303
1925300N11144 1925 55 WP MM NOT_NAMED 1925-10-30 06:00:00 NR 14.8910 129.868 main 563 547 __________P___ -1 14.8910 129.868 4 9 308
1925300N11144 1925 55 WP MM NOT_NAMED 1925-10-30 09:00:00 NR 15.1893 129.512 main 547 545 __________P___ -1 15.1893 129.512 4 9 312
1925300N11144 1925 55 WP MM NOT_NAMED 1925-10-30 10:00:00 NR 15.3000 129.400 main 545 544 __________O___ -1 15.3000 129.400 4 10 317
1925300N11144 1925 55 WP MM NOT_NAMED 1925-10-30 12:00:00 NR 15.5594 129.162 main 550 528 __________P___ -1 15.5594 129.162 4 11 321
1925300N11144 1925 55 WP MM NOT_NAMED 1925-10-30 15:00:00 NR 15.9868 128.829 main 528 521 __________P___ -1 15.9868 128.829 4 11 325
1925300N11144 1925 55 WP MM NOT_NAMED 1925-10-30 18:00:00 NR 16.4323 128.531 main 521 522 __________P___ -1 16.4323 128.531 4 10 329
1925300N11144 1925 55 WP MM NOT_NAMED 1925-10-30 21:00:00 NR 16.8644 128.275 main 536 528 __________P___ -1 16.8644 128.275 4 10 331
1925300N11144 1925 55 WP MM NOT_NAMED 1925-10-30 22:00:00 NR 17.0000 128.200 main 535 534 __________O___ -1 17.0000 128.200 4 8 332
1925300N11144 1925 55 WP MM NOT_NAMED 1925-10-31 00:00:00 NR 17.2367 128.068 main 541 541 __________P___ -1 17.2367 128.068 4 8 334
1925300N11144 1925 55 WP MM NOT_NAMED 1925-10-31 03:00:00 NR 17.5665 127.908 main 557 557 __________P___ -1 17.5665 127.908 4 7 336
1925300N11144 1925 55 WP MM NOT_NAMED 1925-10-31 06:00:00 NR 17.8802 127.774 main 571 557 __________P___ -1 17.8802 127.774 4 7 338
1925300N11144 1925 55 WP MM NOT_NAMED 1925-10-31 09:00:00 NR 18.1931 127.646 main 557 557 __________P___ -1 18.1931 127.646 4 7 338
1925300N11144 1925 55 WP MM NOT_NAMED 1925-10-31 10:00:00 NR 18.3000 127.600 main 559 548 __________O___ -1 18.3000 127.600 4 7 332
1925300N11144 1925 55 WP MM NOT_NAMED 1925-10-31 12:00:00 NR 18.4910 127.481 main 548 528 __________P___ -1 18.4910 127.481 4 7 329
1925300N11144 1925 55 WP MM NOT_NAMED 1925-10-31 15:00:00 NR 18.7829 127.296 main 528 511 __________P___ -1 18.7829 127.296 4 7 331
1925300N11144 1925 55 WP MM NOT_NAMED 1925-10-31 18:00:00 NR 19.1175 127.115 main 511 499 __________P___ -1 19.1175 127.115 4 8 336
1925300N11144 1925 55 WP MM NOT_NAMED 1925-10-31 21:00:00 NR 19.5352 126.949 main 499 501 __________P___ -1 19.5352 126.949 4 9 341
1925300N11144 1925 55 WP MM NOT_NAMED 1925-10-31 22:00:00 NR 19.7000 126.900 main 504 501 __________O___ -1 19.7000 126.900 4 12 345
1925300N11144 1925 55 WP MM NOT_NAMED 1925-11-01 00:00:00 NR 20.0894 126.791 main 509 508 __________P___ -1 20.0894 126.791 4 13 347
1925300N11144 1925 55 WP MM NOT_NAMED 1925-11-01 03:00:00 NR 20.7618 126.645 main 524 524 __________P___ -1 20.7618 126.645 4 14 351
1925300N11144 1925 55 WP MM NOT_NAMED 1925-11-01 06:00:00 NR 21.4986 126.540 main 554 529 __________P___ -1 21.4986 126.540 4 15 355
1925300N11144 1925 55 WP MM NOT_NAMED 1925-11-01 09:00:00 NR 22.2528 126.497 main 529 519 __________P___ -1 22.2528 126.497 4 15 357
1925300N11144 1925 55 WP MM NOT_NAMED 1925-11-01 10:00:00 NR 22.5000 126.500 main 519 497 __________O___ -1 22.5000 126.500 4 15 3
1925300N11144 1925 55 WP MM NOT_NAMED 1925-11-01 12:00:00 NR 22.9805 126.536 main 497 487 __________P___ -1 22.9805 126.536 4 14 7
1925300N11144 1925 55 WP MM NOT_NAMED 1925-11-01 15:00:00 NR 23.6712 126.652 main 495 488 __________P___ -1 23.6712 126.652 4 14 11
1925300N11144 1925 55 WP MM NOT_NAMED 1925-11-01 18:00:00 NR 24.3357 126.824 main 491 489 __________P___ -1 24.3357 126.824 4 14 15
1925300N11144 1925 55 WP MM NOT_NAMED 1925-11-01 21:00:00 NR 24.9850 127.028 main 503 503 __________P___ -1 24.9850 127.028 4 14 16
1925300N11144 1925 55 WP MM NOT_NAMED 1925-11-01 22:00:00 NR 25.2000 127.100 main 513 __________O___ -1 25.2000 127.100 4 14 19

デジタル台風データ・検索

IBTrACS Databaseについて

本データベースは、米国NOAAが公開する1842年以降の世界の熱帯低気圧のベストトラックデータアーカイブInternational Best Track Archive for Climate Stewardship (IBTrACS)を、ウェブで閲覧しやすい形式に変換したものです。

最終更新日:2021-10-08